Millardsville, Pennsylvania
Current Conditions -  °F | °C
As of 2:58 PM on Sunday 25 Jan 2015 (Local Time) from KMUI Reporting Station
Scattered Clouds Scattered Clouds  
Wind Chill: 34°   Ceiling: Unl
Heat Index: 40°   Visibility: 10mi
Dew Point: 31°   Wind: 8mph
Humidity: 72%   Direction: 280°W
Pressure: 29.8"   Gusts: NA
Location:  40.3869°N, 76.3173°W
Report Text: KMUI 251958Z AUTO 28007KT 10SM FEW023 SCT160 04/00 A2980 RMK AO2 SLP098 T00421004
Loading
Personal Weather Stations






























Interactive Weather Map New forecast layout! Learn more

10-Day Weather Forecast

Advertisements
Track Severe Weather on mobile